KJFK

John F Kennedy International Airport

New York, New York, USA
METAR KJFK 160751Z 04016KT 10SM FEW023 OVC039 07/02 A3009 RMK AO2 PK WND 04028/0722 SLP190 T00670022
Observed Flight Rules
Dec-16 @ 07:51 UTC (19 minutes ago) Visual Flight Rules
Wind Visibility Clouds
40° at 16 knots 10 miles
  • Few at 2,300' AGL
  • Overcast at 3,900' AGL
Temperatures Readings
Current 7°C / 45°F
Dewpoint 2°C / 36°F
Humidity 71%
Altimeter 30.09" Hg
Pressure 1019 hPa
Elevation 9
METAR KJFK 160751Z 04016KT 10SM FEW023 OVC039 07/02 A3009 RMK AO2 PK WND 04028/0722 SLP190 T00670022
Observed Flight Rules
Dec-16 @ 07:51 UTC
(19 minutes ago)
VFR
Wind Visibility
40° at 16 knots 10 miles
Clouds
  • Few at 2,300' AGL
  • Overcast at 3,900' AGL
Temperature Dewpoint
7°C / 45°F 2°C / 36°F
Humidity Altimeter Pressure
71% 30.09" Hg 1019 hPa